Delta, CO

6:28 PM MDT on March 28, 2017 (GMT -0600)
Delta

Weather History for KAJZ - December, 2012

Change the Weather History Date:

Wednesday, December 19, 2012

  Actual Average (KMTJ) Record (KMTJ)
Temperature  
Mean Temperature 24 °F -  
Max Temperature 42 °F 34 °F 52 °F (2010)
Min Temperature 7 °F 12 °F 3 °F (2012)
Degree Days  
Heating Degree Days 40    
Moisture  
Dew Point 13 °F    
Average Humidity 64    
Maximum Humidity 95    
Minimum Humidity 24    
Precipitation  
Precipitation 0.00 in - - ()
Sea Level Pressure  
Sea Level Pressure 29.90 in    
Wind  
Wind Speed 8 mph (NW)    
Max Wind Speed 23 mph    
Max Gust Speed 38 mph    
Visibility 8 miles    
Events Rain , Snow    
Averages and records for this station are not official NWS values.
T = Trace of Precipitation, MM = Missing Value Source: NWS Daily Summary

Daily Weather History Graph

Daily Weather History Graph

Search for Another Location

Airport or City:

Trip Planner

Search our weather history database for the weather conditions in past years. The results will help you decide how hot, cold, wet, or windy it might be!

Date:

Astronomy

Dec. 19, 2012 Rise Set
Actual Time 7:26 AM MST 4:53 PM MST
Civil Twilight 6:56 AM MST 5:23 PM MST
Nautical Twilight 6:22 AM MST 5:56 PM MST
Astronomical Twilight 5:50 AM MST 6:29 PM MST
Moon 11:40 AM MST (12/19) No Moon Set
Length of Visible Light 10h 26m
Length of Day
9h 27m
Waxing Crescent, 45% of the Moon is Illuminated
Dec 19
Waxing Crescent
Dec 19
First Quarter
Dec 28
Full
Jan 4
Last Quarter
Jan 11
New

Hourly Weather History & Observations

Time (MST) Temp. Windchill Dew Point Humidity Pressure Visibility Wind Dir Wind Speed Gust Speed Precip Events Conditions
12:15 AM 42.1 °F - 28.2 °F 58% 29.50 in 10.0 mi Calm Calm - N/A   Overcast
12:35 AM 41.5 °F 39.6 °F 28.2 °F 59% 29.49 in 10.0 mi SE 3.5 mph - N/A   Mostly Cloudy
12:55 AM 42.1 °F 36.1 °F 29.3 °F 61% 29.48 in 10.0 mi SW 10.4 mph - N/A   Overcast
1:15 AM 39.0 °F 35.7 °F 30.6 °F 72% 29.47 in 10.0 mi SW 4.6 mph - N/A   Overcast
1:35 AM 36.7 °F 29.9 °F 32.7 °F 86% 29.47 in 10.0 mi WSW 9.2 mph - N/A Rain Light Rain
1:55 AM 35.1 °F 26.9 °F 32.5 °F 91% 29.47 in 3.0 mi WSW 11.5 mph - N/A Snow Light Snow
2:15 AM 32.5 °F 22.7 °F 31.3 °F 95% 29.48 in 1.0 mi West 13.8 mph - N/A Snow Snow
2:35 AM 34.7 °F 24.7 °F 31.6 °F 89% 29.50 in 1.2 mi WNW 16.1 mph 26.5 mph N/A Snow Light Snow
2:55 AM 28.4 °F 14.7 °F 23.9 °F 83% 29.50 in 7.0 mi West 21.9 mph 28.8 mph N/A   Overcast
3:15 AM 28.2 °F 15.9 °F 22.3 °F 78% 29.46 in 10.0 mi WSW 17.3 mph 23.0 mph N/A   Mostly Cloudy
3:35 AM 27.0 °F 12.5 °F 22.5 °F 83% 29.50 in 2.5 mi West 23.0 mph 38.0 mph N/A Snow Light Snow
3:55 AM 28.8 °F 15.9 °F 22.5 °F 77% 29.50 in 10.0 mi WSW 19.6 mph 25.3 mph N/A   Overcast
4:15 AM 26.6 °F 13.1 °F 20.7 °F 78% 29.53 in 10.0 mi West 19.6 mph 26.5 mph N/A   Overcast
4:35 AM 28.0 °F 20.8 °F 22.3 °F 79% 29.56 in 10.0 mi West 6.9 mph 18.4 mph N/A   Overcast
4:55 AM 25.9 °F 16.0 °F 20.1 °F 79% 29.57 in 10.0 mi West 10.4 mph 23.0 mph N/A   Overcast
5:15 AM 27.1 °F 19.7 °F 23.2 °F 85% 29.57 in 4.0 mi NNW 6.9 mph - N/A Snow Light Snow
5:35 AM 27.0 °F 18.0 °F 23.0 °F 85% 29.57 in 4.0 mi NNW 9.2 mph - N/A Snow Light Snow
5:55 AM 26.6 °F 19.1 °F 22.6 °F 85% 29.59 in 5.0 mi NNW 6.9 mph - N/A Snow Light Snow
6:15 AM 26.2 °F 16.4 °F 22.6 °F 86% 29.60 in 2.0 mi NNW 10.4 mph - N/A Snow Light Snow
6:35 AM 25.7 °F 18.0 °F 21.7 °F 85% 29.62 in 3.0 mi NNW 6.9 mph - N/A Snow Light Snow
6:55 AM 25.5 °F 21.3 °F 21.2 °F 84% 29.62 in 2.5 mi NW 3.5 mph - N/A Snow Light Snow
7:15 AM 25.0 °F 16.3 °F 20.3 °F 82% 29.63 in 2.5 mi West 8.1 mph - N/A Snow Light Snow
7:35 AM 24.8 °F 19.1 °F 21.6 °F 87% 29.63 in 1.8 mi NNW 4.6 mph - N/A Snow Light Snow
7:55 AM 24.6 °F 15.1 °F 21.6 °F 88% 29.64 in 1.2 mi West 9.2 mph - N/A Snow Light Snow
8:15 AM 25.2 °F 17.3 °F 22.5 °F 89% 29.66 in 0.8 mi NNW 6.9 mph - N/A Snow Light Snow
8:35 AM 25.2 °F 18.3 °F 21.6 °F 86% 29.68 in 1.2 mi NW 5.8 mph - N/A Snow Light Snow
8:55 AM 25.7 °F 20.1 °F 21.7 °F 85% 29.71 in 2.0 mi North 4.6 mph - N/A Snow Light Snow
9:15 AM 25.3 °F - 21.9 °F 87% 29.74 in 1.5 mi Calm Calm - N/A Snow Light Snow
9:35 AM 25.5 °F 21.3 °F 22.5 °F 88% 29.76 in 1.5 mi ESE 3.5 mph - N/A Snow Light Snow
9:55 AM 24.8 °F 19.1 °F 22.1 °F 89% 29.78 in 2.5 mi SE 4.6 mph - N/A Snow Light Snow
10:15 AM 25.3 °F 19.7 °F 21.9 °F 87% 29.81 in 7.0 mi East 4.6 mph - N/A Snow Light Snow
10:35 AM 25.7 °F - 21.7 °F 85% 29.83 in 10.0 mi Calm Calm - N/A   Overcast
10:55 AM 24.3 °F - 20.7 °F 86% 29.84 in 10.0 mi Calm Calm - N/A   Scattered Clouds
11:15 AM 27.5 °F - 21.6 °F 78% 29.86 in 10.0 mi Calm Calm - N/A   Clear
11:35 AM 27.1 °F 20.7 °F 21.7 °F 80% 29.87 in 10.0 mi NNE 5.8 mph - N/A   Clear
11:55 AM 27.3 °F 22.0 °F 21.6 °F 79% 29.89 in 10.0 mi North 4.6 mph - N/A   Clear
12:15 PM 28.9 °F - 19.4 °F 68% 29.90 in 10.0 mi Calm Calm - N/A   Clear
12:35 PM 30.0 °F - 15.6 °F 55% 29.90 in 10.0 mi Calm Calm - N/A   Clear
12:55 PM 30.9 °F 27.5 °F 14.5 °F 51% 29.92 in 10.0 mi NW 3.5 mph - N/A   Scattered Clouds
1:15 PM 32.2 °F 27.7 °F 12.0 °F 43% 29.93 in 10.0 mi NNW 4.6 mph - N/A   Mostly Cloudy
1:35 PM 31.1 °F 20.1 °F 8.8 °F 39% 29.95 in 10.0 mi West 16.1 mph 23.0 mph N/A   Mostly Cloudy
1:55 PM 30.6 °F 18.6 °F 8.2 °F 39% 29.96 in 10.0 mi WNW 18.4 mph 25.3 mph N/A   Mostly Cloudy
2:15 PM 30.2 °F 17.8 °F 7.7 °F 39% 29.97 in 10.0 mi West 19.6 mph 27.6 mph N/A   Scattered Clouds
2:35 PM 30.6 °F 19.8 °F 7.9 °F 39% 29.99 in 10.0 mi West 15.0 mph 21.9 mph N/A   Clear
2:55 PM 31.1 °F 20.1 °F 6.3 °F 35% 30.02 in 10.0 mi WNW 16.1 mph 25.3 mph N/A   Scattered Clouds
3:15 PM 31.6 °F 19.7 °F 1.9 °F 28% 30.03 in 10.0 mi NNW 19.6 mph 28.8 mph N/A   Scattered Clouds
3:35 PM 31.1 °F 18.0 °F 1.9 °F 29% 30.06 in 10.0 mi North 23.0 mph 32.2 mph N/A   Scattered Clouds
3:55 PM 30.0 °F 16.9 °F -1.7 °F 26% 30.09 in 5.0 mi NNW 21.9 mph 32.2 mph N/A   Haze
4:15 PM 29.1 °F 17.5 °F -0.6 °F 28% 30.11 in 10.0 mi NW 16.1 mph - N/A   Clear
4:35 PM 28.4 °F 17.0 °F -3.6 °F 25% 30.14 in 10.0 mi NW 15.0 mph - N/A   Clear
4:55 PM 27.1 °F 21.8 °F -1.7 °F 29% 30.16 in 10.0 mi West 4.6 mph - N/A   Clear
5:15 PM 27.0 °F - -2.6 °F 28% 30.17 in 10.0 mi Calm Calm - N/A   Clear
5:35 PM 26.4 °F 13.2 °F -6.0 °F 24% 30.18 in 10.0 mi WNW 18.4 mph 21.9 mph N/A   Clear
5:55 PM 27.1 °F 20.7 °F -5.3 °F 24% 30.19 in 10.0 mi North 5.8 mph 21.9 mph N/A   Clear
6:15 PM 23.0 °F 18.4 °F 0.9 °F 38% 30.21 in 10.0 mi SSW 3.5 mph - N/A   Clear
6:35 PM 22.1 °F 13.7 °F 2.1 °F 42% 30.23 in 10.0 mi WSW 6.9 mph - N/A   Clear
6:55 PM 21.9 °F 11.7 °F 2.1 °F 42% 30.24 in 10.0 mi WSW 9.2 mph - N/A   Clear
7:15 PM 22.6 °F 12.6 °F 1.8 °F 41% 30.25 in 10.0 mi WSW 9.2 mph - N/A   Clear
7:35 PM 21.0 °F - 2.5 °F 45% 30.27 in 10.0 mi Calm Calm - N/A   Clear
7:55 PM 17.8 °F 12.5 °F 2.5 °F 51% 30.28 in 10.0 mi ESE 3.5 mph - N/A   Clear
8:15 PM 14.7 °F 7.3 °F 2.3 °F 58% 30.29 in 10.0 mi East 4.6 mph - N/A   Clear
8:35 PM 15.6 °F 10.0 °F 1.9 °F 55% 30.30 in 10.0 mi NE 3.5 mph - N/A   Clear
8:55 PM 13.3 °F 4.2 °F 0.7 °F 57% 30.32 in 10.0 mi East 5.8 mph - N/A   Clear
9:15 PM 12.0 °F 1.5 °F 0.3 °F 59% 30.33 in 10.0 mi East 6.9 mph - N/A   Clear
9:35 PM 12.0 °F 2.7 °F 0.3 °F 59% 30.35 in 10.0 mi ENE 5.8 mph - N/A   Clear
9:55 PM 12.0 °F 5.9 °F -0.2 °F 58% 30.36 in 10.0 mi East 3.5 mph - N/A   Clear
10:15 PM 11.8 °F 5.7 °F -0.2 °F 58% 30.37 in 10.0 mi ESE 3.5 mph - N/A   Clear
10:35 PM 10.6 °F 4.3 °F -0.9 °F 60% 30.39 in 10.0 mi ENE 3.5 mph - N/A   Clear
10:55 PM 10.0 °F 1.8 °F -0.9 °F 61% 30.39 in 10.0 mi East 4.6 mph - N/A   Clear
11:15 PM 8.1 °F -3.2 °F -1.1 °F 66% 30.40 in 10.0 mi East 6.9 mph - N/A   Clear
11:35 PM 7.2 °F -3.0 °F -1.3 °F 68% 30.42 in 10.0 mi East 5.8 mph - N/A   Clear
11:55 PM 8.2 °F -1.8 °F -1.7 °F 64% 30.43 in 10.0 mi NE 5.8 mph - N/A   Clear